Bookmark and Share
Track history (hours):
 

Bosporus

Last reported at 2014-Apr-21 02:33 UTC. Time now 2014-Apr-21 03:13 UTC.
Position N 41°60' E 003°35'.

Length 100 m; draft 5.6 m.

Type: Cargo ship. MMSI: 304010802.

NotesDate/timePositionNaut miles runAvg speedWind from/ knotsBaromVisibWave heightAir tempDewpointWater temp
2014-Apr-21 02:33N 41°60' E 003°35'1110.5
2014-Apr-21 01:33N 42°08' E 003°43'1010.3
2014-Apr-21 00:34N 42°16' E 003°51'1010.1
2014-Apr-20 23:33N 42°24' E 003°59'1010.0
2014-Apr-20 22:33N 42°33' E 004°07'1110.9
2014-Apr-20 21:33N 42°42' E 004°15'10 9.9
2014-Apr-20 20:33N 42°50' E 004°23'10 9.5
2014-Apr-20 19:32N 42°57' E 004°32'9 9.2
2014-Apr-20 18:33N 43°04' E 004°40'1110.4
2014-Apr-20 17:31N 43°13' E 004°49'9 9.8
2014-Apr-20 16:34N 43°20' E 004°56'6 5.7
2014-Apr-20 15:31N 43°26' E 004°53'0 0.0
2014-Apr-20 14:32N 43°26' E 004°53'0 0.0
2014-Apr-20 13:32N 43°26' E 004°53'0 0.0
2014-Apr-20 12:32N 43°26' E 004°53'0 0.0
2014-Apr-20 11:29N 43°26' E 004°53'0 0.0
2014-Apr-20 10:32N 43°26' E 004°53'0 0.0
2014-Apr-20 09:32N 43°26' E 004°53'0 0.0
2014-Apr-20 08:32N 43°26' E 004°53'0 0.0
2014-Apr-20 07:32N 43°26' E 004°53'0 0.0
2014-Apr-20 06:32N 43°26' E 004°53'0 0.0
2014-Apr-20 05:32N 43°26' E 004°53'0 0.0
2014-Apr-20 04:32N 43°26' E 004°53'0 0.0
2014-Apr-20 03:32N 43°26' E 004°53'0 0.0
2014-Apr-20 02:32N 43°26' E 004°53'0 0.0
2014-Apr-20 01:32N 43°26' E 004°53'0 0.0
2014-Apr-20 00:32N 43°26' E 004°53'0 0.0
2014-Apr-19 23:32N 43°26' E 004°53'0 0.0
2014-Apr-19 22:32N 43°26' E 004°53'0 0.0
2014-Apr-19 21:29N 43°26' E 004°53'0 0.0
2014-Apr-19 20:32N 43°26' E 004°53'0 0.0
2014-Apr-19 19:32N 43°26' E 004°53'0 0.0
2014-Apr-19 18:32N 43°26' E 004°53'0 0.0
2014-Apr-19 17:32N 43°26' E 004°53'0 0.0
2014-Apr-19 16:32N 43°26' E 004°53'0 0.0
2014-Apr-19 15:32N 43°26' E 004°53'0 0.0
2014-Apr-19 14:32N 43°26' E 004°53'0 0.0
2014-Apr-19 13:29N 43°26' E 004°53'0 0.0
2014-Apr-19 12:29N 43°26' E 004°53'0 0.0
2014-Apr-19 11:32N 43°26' E 004°53'0 0.0
2014-Apr-19 10:32N 43°26' E 004°53'0 0.0
2014-Apr-19 09:32N 43°26' E 004°53'0 0.0
2014-Apr-19 08:32N 43°26' E 004°53'0 0.0
2014-Apr-19 07:26N 43°26' E 004°53'0 0.0
2014-Apr-19 06:32N 43°26' E 004°53'0 0.0
2014-Apr-19 05:32N 43°26' E 004°53'0 0.0
2014-Apr-19 04:29N 43°26' E 004°53'0 0.0
2014-Apr-19 03:32N 43°26' E 004°53'0 0.0
2014-Apr-19 02:32N 43°26' E 004°53'0 0.0
2014-Apr-19 01:32N 43°26' E 004°53'0 0.0
2014-Apr-19 00:29N 43°26' E 004°53'0 0.0
2014-Apr-18 23:32N 43°26' E 004°53'0 0.0
2014-Apr-18 22:32N 43°26' E 004°53'0 0.0
2014-Apr-18 21:29N 43°26' E 004°53'0 0.0
2014-Apr-18 20:32N 43°26' E 004°53'0 0.0
2014-Apr-18 19:32N 43°26' E 004°53'0 0.0
2014-Apr-18 18:32N 43°26' E 004°53'0 0.0
2014-Apr-18 17:32N 43°26' E 004°53'3 2.8
2014-Apr-18 16:33N 43°24' E 004°57'0 0.1
2014-Apr-18 15:33N 43°24' E 004°57'0 0.0
2014-Apr-18 14:33N 43°24' E 004°57'0 0.0
2014-Apr-18 13:33N 43°24' E 004°57'0 0.0
2014-Apr-18 12:30N 43°24' E 004°57'0 0.0
2014-Apr-18 11:33N 43°24' E 004°57'0 0.0
2014-Apr-18 10:33N 43°24' E 004°57'0 0.0
2014-Apr-18 09:33N 43°24' E 004°57'0 0.0
2014-Apr-18 08:33N 43°24' E 004°57'0 0.0
2014-Apr-18 07:33N 43°24' E 004°57'0 0.0
2014-Apr-18 06:33N 43°24' E 004°57'0 0.0
2014-Apr-18 05:33N 43°24' E 004°57'0 0.0
2014-Apr-18 04:30N 43°24' E 004°57'0 0.1
2014-Apr-18 03:33N 43°24' E 004°57'0 0.1
2014-Apr-18 02:33N 43°24' E 004°57'0 0.0
2014-Apr-18 01:33N 43°24' E 004°57'0 0.0
2014-Apr-18 00:33N 43°24' E 004°57'0 0.1
2014-Apr-17 23:33N 43°24' E 004°57'0 0.0
2014-Apr-17 22:27N 43°24' E 004°57'0 0.0
2014-Apr-17 21:33N 43°24' E 004°57'0 0.0
2014-Apr-17 20:33N 43°24' E 004°57'0 0.0
2014-Apr-17 19:33N 43°24' E 004°57'0 0.0
2014-Apr-17 18:33N 43°24' E 004°57'0 0.0
2014-Apr-17 17:33N 43°24' E 004°57'0 0.0
2014-Apr-17 16:33N 43°24' E 004°57'0 0.0
2014-Apr-17 15:33N 43°24' E 004°57'0 0.0
2014-Apr-17 14:33N 43°24' E 004°57'0 0.0
2014-Apr-17 13:30N 43°24' E 004°57'0 0.0
2014-Apr-17 12:33N 43°24' E 004°57'0 0.0
2014-Apr-17 11:33N 43°24' E 004°57'0 0.0
2014-Apr-17 10:33N 43°24' E 004°57'0 0.0
2014-Apr-17 09:33N 43°24' E 004°57'0 0.0
2014-Apr-17 08:33N 43°24' E 004°57'0 0.0
2014-Apr-17 07:33N 43°24' E 004°57'0 0.0
2014-Apr-17 06:33N 43°24' E 004°57'0 0.0
2014-Apr-17 05:33N 43°24' E 004°57'0 0.0
2014-Apr-17 04:33N 43°24' E 004°57'0 0.0
2014-Apr-17 03:33N 43°24' E 004°57'0 0.0
2014-Apr-17 02:33N 43°24' E 004°57'0 0.0
2014-Apr-17 01:33N 43°24' E 004°57'0 0.0
2014-Apr-17 00:33N 43°24' E 004°57'0 0.0
2014-Apr-16 23:33N 43°24' E 004°57'0 0.0
2014-Apr-16 22:33N 43°24' E 004°57'0 0.0
2014-Apr-16 21:33N 43°24' E 004°57'7 7.4
2014-Apr-16 20:34N 43°18' E 005°00'9 9.3
2014-Apr-16 19:34N 43°08' E 004°60'1510.4
2014-Apr-16 18:06N 42°58' E 004°45'610.4
2014-Apr-16 17:32N 42°54' E 004°39'10 9.6
2014-Apr-16 16:33N 42°47' E 004°30'9 9.5
2014-Apr-16 15:33N 42°40' E 004°21'10 9.3
2014-Apr-16 14:31N 42°33' E 004°12'13 9.1
2014-Apr-16 13:03N 42°23' E 003°59'5 9.9
2014-Apr-16 12:32N 42°20' E 003°55'9 8.9
2014-Apr-16 11:30N 42°13' E 003°46'9 9.2
2014-Apr-16 10:33N 42°07' E 003°38'9 9.1
2014-Apr-16 09:33N 42°00' E 003°29'10 9.1
2014-Apr-16 08:26N 41°53' E 003°20'9 9.9
2014-Apr-16 07:31N 41°47' E 003°11'38 9.7
2014-Apr-16 03:33N 41°21' E 002°32'1010.1
2014-Apr-16 02:33N 41°15' E 002°22'1210.4
2014-Apr-16 01:23N 41°07' E 002°10'910.2
2014-Apr-16 00:33N 41°01' E 002°02'9 9.2
2014-Apr-15 23:33N 40°55' E 001°53'9 9.7
2014-Apr-15 22:34N 40°48' E 001°44'10 9.8
2014-Apr-15 21:33N 40°41' E 001°34'1210.4
2014-Apr-15 20:23N 40°34' E 001°22'1010.7
2014-Apr-15 19:29N 40°28' E 001°12'2211.0
2014-Apr-15 17:30N 40°14' E 000°49'1011.0
2014-Apr-15 16:33N 40°08' E 000°39'10 0.3
2014-Apr-14 07:34N 40°15' E 000°47'10 9.9
2014-Apr-14 06:33N 40°22' E 000°57'10 9.8
2014-Apr-14 05:34N 40°27' E 001°08'8712.3
2014-Apr-13 22:31N 41°23' E 002°36'1010.3
2014-Apr-13 21:33N 41°30' E 002°46'1010.2
2014-Apr-13 20:33N 41°36' E 002°56'20 9.6
2014-Apr-13 18:26N 41°51' E 003°15'910.2
2014-Apr-13 17:33N 41°60' E 003°17'10 9.5
2014-Apr-13 16:33N 42°09' E 003°19'10 9.8
2014-Apr-13 15:33N 42°19' E 003°22'1010.1
2014-Apr-13 14:33N 42°29' E 003°25'11 7.5
2014-Apr-13 13:03N 42°35' E 003°38'4 9.0
2014-Apr-13 12:33N 42°36' E 003°44'8 8.3
2014-Apr-13 11:33N 42°39' E 003°54'9 8.6
2014-Apr-13 10:33N 42°42' E 004°05'9 8.8
2014-Apr-13 09:30N 42°48' E 004°15'9 9.2
2014-Apr-13 08:30N 42°54' E 004°24'29 9.8
2014-Apr-13 05:32N 43°15' E 004°51'9 8.8
2014-Apr-13 04:33N 43°24' E 004°55'2 2.4
2014-Apr-13 03:33N 43°26' E 004°54'0 0.0
2014-Apr-13 02:32N 43°26' E 004°54'0 0.0
2014-Apr-13 01:33N 43°26' E 004°54'0 0.0
2014-Apr-13 00:33N 43°26' E 004°54'0 0.0
2014-Apr-12 23:33N 43°26' E 004°54'0 0.0
2014-Apr-12 22:33N 43°26' E 004°54'0 0.0
2014-Apr-12 21:29N 43°26' E 004°54'0 0.0
2014-Apr-12 20:33N 43°26' E 004°54'0 0.0
2014-Apr-12 19:32N 43°26' E 004°54'0 0.0
2014-Apr-12 18:32N 43°26' E 004°54'0 0.0
2014-Apr-12 17:33N 43°26' E 004°54'0 0.0
2014-Apr-12 16:33N 43°26' E 004°54'0 0.0
2014-Apr-12 15:30N 43°26' E 004°54'0 0.0
2014-Apr-12 14:32N 43°26' E 004°54'0 0.0
2014-Apr-12 13:33N 43°26' E 004°54'0 0.0
2014-Apr-12 12:33N 43°26' E 004°54'0 0.0
2014-Apr-12 11:32N 43°26' E 004°54'0 0.0
2014-Apr-12 10:27N 43°26' E 004°54'0 0.0
2014-Apr-12 09:33N 43°26' E 004°54'0 0.0
2014-Apr-12 08:33N 43°26' E 004°54'0 0.0
2014-Apr-12 07:19N 43°26' E 004°54'0 0.0
2014-Apr-12 06:33N 43°26' E 004°54'0 0.0
2014-Apr-12 05:33N 43°26' E 004°54'0 0.0
2014-Apr-12 04:32N 43°26' E 004°54'0 0.0
2014-Apr-12 03:33N 43°26' E 004°54'0 0.0
2014-Apr-12 02:30N 43°26' E 004°54'0 0.0
2014-Apr-12 01:33N 43°26' E 004°54'0 0.0
2014-Apr-12 00:32N 43°26' E 004°54'0 0.0
2014-Apr-11 23:33N 43°26' E 004°54'0 0.0
2014-Apr-11 22:33N 43°26' E 004°54'0 0.0
2014-Apr-11 21:33N 43°26' E 004°54'1 1.3
2014-Apr-11 20:33N 43°24' E 004°53'3 2.6
2014-Apr-11 19:31N 43°25' E 004°57'0 0.0
2014-Apr-11 18:31N 43°25' E 004°57'0 0.0
2014-Apr-11 17:31N 43°25' E 004°57'0 0.0
2014-Apr-11 16:31N 43°25' E 004°57'0 0.0
2014-Apr-11 15:31N 43°25' E 004°57'0 0.0
2014-Apr-11 14:31N 43°25' E 004°57'0 0.0
2014-Apr-11 13:31N 43°25' E 004°57'0 0.0
2014-Apr-11 12:32N 43°25' E 004°57'0 0.0
2014-Apr-11 11:31N 43°25' E 004°57'0 0.0
2014-Apr-11 10:31N 43°25' E 004°57'0 0.0
2014-Apr-11 09:31N 43°25' E 004°57'0 0.0
2014-Apr-11 08:31N 43°25' E 004°57'0 0.0
2014-Apr-11 07:31N 43°25' E 004°57'0 0.1
2014-Apr-11 06:31N 43°25' E 004°57'0 0.1
2014-Apr-11 05:31N 43°25' E 004°57'0 0.0
2014-Apr-11 04:31N 43°25' E 004°57'0 0.0
2014-Apr-11 03:31N 43°25' E 004°57'  

Dump ship's entire track history

sailing weather and tide predictions

Bosporus — V2QY — position and weather